sensor_id;sensor_type;location;lat;lon;timestamp;P1;durP1;ratioP1;P2;durP2;ratioP2
53389;SDS011;39288;42.970;1.524;2023-01-24T00:00:27;11.60;;;7.73;;
53389;SDS011;39288;42.970;1.524;2023-01-24T00:01:28;12.23;;;7.23;;
53389;SDS011;39288;42.970;1.524;2023-01-24T00:02:29;10.10;;;6.63;;
53389;SDS011;39288;42.970;1.524;2023-01-24T00:03:30;11.38;;;7.22;;
53389;SDS011;39288;42.970;1.524;2023-01-24T00:04:30;14.23;;;8.13;;
53389;SDS011;39288;42.970;1.524;2023-01-24T00:05:33;12.37;;;8.00;;
53389;SDS011;39288;42.970;1.524;2023-01-24T00:06:34;12.25;;;8.63;;
53389;SDS011;39288;42.970;1.524;2023-01-24T00:07:34;12.27;;;9.17;;
53389;SDS011;39288;42.970;1.524;2023-01-24T00:08:35;13.87;;;8.90;;
53389;SDS011;39288;42.970;1.524;2023-01-24T00:09:35;13.97;;;8.83;;
53389;SDS011;39288;42.970;1.524;2023-01-24T00:10:35;13.73;;;9.07;;
53389;SDS011;39288;42.970;1.524;2023-01-24T00:11:36;14.10;;;9.60;;
53389;SDS011;39288;42.970;1.524;2023-01-24T00:12:37;15.00;;;9.20;;
53389;SDS011;39288;42.970;1.524;2023-01-24T00:13:37;13.40;;;8.97;;
53389;SDS011;39288;42.970;1.524;2023-01-24T00:14:39;17.67;;;9.48;;
53389;SDS011;39288;42.970;1.524;2023-01-24T00:15:42;14.70;;;9.98;;
53389;SDS011;39288;42.970;1.524;2023-01-24T00:16:42;15.73;;;10.37;;
53389;SDS011;39288;42.970;1.524;2023-01-24T00:17:43;16.27;;;9.80;;
53389;SDS011;39288;42.970;1.524;2023-01-24T00:18:43;15.07;;;9.53;;
53389;SDS011;39288;42.970;1.524;2023-01-24T00:19:45;13.25;;;8.60;;
53389;SDS011;39288;42.970;1.524;2023-01-24T00:20:45;13.40;;;8.90;;
53389;SDS011;39288;42.970;1.524;2023-01-24T00:21:45;14.10;;;9.60;;
53389;SDS011;39288;42.970;1.524;2023-01-24T00:22:46;13.00;;;9.27;;
53389;SDS011;39288;42.970;1.524;2023-01-24T00:23:48;15.97;;;10.20;;
53389;SDS011;39288;42.970;1.524;2023-01-24T00:24:49;15.23;;;9.68;;
53389;SDS011;39288;42.970;1.524;2023-01-24T00:25:50;14.87;;;9.57;;
53389;SDS011;39288;42.970;1.524;2023-01-24T00:26:50;14.63;;;9.83;;
53389;SDS011;39288;42.970;1.524;2023-01-24T00:27:51;14.13;;;9.63;;
53389;SDS011;39288;42.970;1.524;2023-01-24T00:28:51;16.57;;;9.80;;
53389;SDS011;39288;42.970;1.524;2023-01-24T00:29:52;15.57;;;11.20;;
53389;SDS011;39288;42.970;1.524;2023-01-24T00:30:52;14.37;;;9.67;;
53389;SDS011;39288;42.970;1.524;2023-01-24T00:31:53;15.63;;;9.30;;
53389;SDS011;39288;42.970;1.524;2023-01-24T00:32:53;13.80;;;9.83;;
53389;SDS011;39288;42.970;1.524;2023-01-24T00:33:54;16.83;;;10.20;;
53389;SDS011;39288;42.970;1.524;2023-01-24T00:34:54;17.17;;;11.00;;
53389;SDS011;39288;42.970;1.524;2023-01-24T00:35:55;15.33;;;9.77;;
53389;SDS011;39288;42.970;1.524;2023-01-24T00:36:55;14.40;;;9.93;;
53389;SDS011;39288;42.970;1.524;2023-01-24T00:37:55;15.33;;;10.20;;
53389;SDS011;39288;42.970;1.524;2023-01-24T00:38:56;15.77;;;10.40;;
53389;SDS011;39288;42.970;1.524;2023-01-24T00:39:56;14.47;;;9.50;;
53389;SDS011;39288;42.970;1.524;2023-01-24T00:40:57;17.80;;;11.33;;
53389;SDS011;39288;42.970;1.524;2023-01-24T00:41:58;16.30;;;9.77;;
53389;SDS011;39288;42.970;1.524;2023-01-24T00:42:58;16.17;;;11.17;;
53389;SDS011;39288;42.970;1.524;2023-01-24T00:43:59;15.03;;;9.90;;
53389;SDS011;39288;42.970;1.524;2023-01-24T00:44:59;14.00;;;9.73;;
53389;SDS011;39288;42.970;1.524;2023-01-24T00:46:00;16.33;;;10.33;;
53389;SDS011;39288;42.970;1.524;2023-01-24T00:47:01;18.90;;;12.05;;
53389;SDS011;39288;42.970;1.524;2023-01-24T00:48:01;19.70;;;12.10;;
53389;SDS011;39288;42.970;1.524;2023-01-24T00:49:03;15.75;;;11.00;;
53389;SDS011;39288;42.970;1.524;2023-01-24T00:50:03;16.10;;;11.27;;
53389;SDS011;39288;42.970;1.524;2023-01-24T00:51:04;17.30;;;10.93;;
53389;SDS011;39288;42.970;1.524;2023-01-24T00:52:05;15.80;;;9.77;;
53389;SDS011;39288;42.970;1.524;2023-01-24T00:53:05;17.00;;;10.43;;
53389;SDS011;39288;42.970;1.524;2023-01-24T00:54:05;16.80;;;11.00;;
53389;SDS011;39288;42.970;1.524;2023-01-24T00:55:09;18.53;;;10.67;;
53389;SDS011;39288;42.970;1.524;2023-01-24T00:56:09;16.73;;;10.27;;
53389;SDS011;39288;42.970;1.524;2023-01-24T00:57:10;14.97;;;9.70;;
53389;SDS011;39288;42.970;1.524;2023-01-24T00:58:10;16.03;;;10.30;;
53389;SDS011;39288;42.970;1.524;2023-01-24T00:59:11;15.17;;;10.37;;
53389;SDS011;39288;42.970;1.524;2023-01-24T01:00:11;17.53;;;11.40;;
53389;SDS011;39288;42.970;1.524;2023-01-24T01:01:12;14.05;;;10.13;;
53389;SDS011;39288;42.970;1.524;2023-01-24T01:02:13;16.37;;;10.70;;
53389;SDS011;39288;42.970;1.524;2023-01-24T01:03:15;16.03;;;10.37;;
53389;SDS011;39288;42.970;1.524;2023-01-24T01:04:17;15.00;;;9.80;;
53389;SDS011;39288;42.970;1.524;2023-01-24T01:05:17;14.67;;;9.80;;
53389;SDS011;39288;42.970;1.524;2023-01-24T01:06:18;15.40;;;9.93;;
53389;SDS011;39288;42.970;1.524;2023-01-24T01:07:18;15.17;;;10.53;;
53389;SDS011;39288;42.970;1.524;2023-01-24T01:08:20;16.08;;;10.68;;
53389;SDS011;39288;42.970;1.524;2023-01-24T01:09:23;17.25;;;10.18;;
53389;SDS011;39288;42.970;1.524;2023-01-24T01:10:24;15.93;;;10.43;;
53389;SDS011;39288;42.970;1.524;2023-01-24T01:11:24;19.63;;;10.03;;
53389;SDS011;39288;42.970;1.524;2023-01-24T01:12:25;14.90;;;9.83;;
53389;SDS011;39288;42.970;1.524;2023-01-24T01:13:26;15.03;;;10.00;;
53389;SDS011;39288;42.970;1.524;2023-01-24T01:14:26;16.52;;;10.00;;
53389;SDS011;39288;42.970;1.524;2023-01-24T01:15:27;14.40;;;9.03;;
53389;SDS011;39288;42.970;1.524;2023-01-24T01:16:28;15.98;;;10.63;;
53389;SDS011;39288;42.970;1.524;2023-01-24T01:17:29;14.43;;;10.43;;
53389;SDS011;39288;42.970;1.524;2023-01-24T01:18:29;15.37;;;8.77;;
53389;SDS011;39288;42.970;1.524;2023-01-24T01:19:30;14.90;;;9.73;;
53389;SDS011;39288;42.970;1.524;2023-01-24T01:20:30;16.07;;;9.73;;
53389;SDS011;39288;42.970;1.524;2023-01-24T01:21:31;14.53;;;8.97;;
53389;SDS011;39288;42.970;1.524;2023-01-24T01:22:31;14.33;;;9.53;;
53389;SDS011;39288;42.970;1.524;2023-01-24T01:23:32;13.37;;;9.60;;
53389;SDS011;39288;42.970;1.524;2023-01-24T01:24:32;15.97;;;10.07;;
53389;SDS011;39288;42.970;1.524;2023-01-24T01:25:33;13.10;;;9.20;;
53389;SDS011;39288;42.970;1.524;2023-01-24T01:26:33;15.17;;;9.50;;
53389;SDS011;39288;42.970;1.524;2023-01-24T01:27:34;15.10;;;9.60;;
53389;SDS011;39288;42.970;1.524;2023-01-24T01:28:34;15.10;;;8.93;;
53389;SDS011;39288;42.970;1.524;2023-01-24T01:29:35;13.20;;;9.07;;
53389;SDS011;39288;42.970;1.524;2023-01-24T01:30:35;13.90;;;9.40;;
53389;SDS011;39288;42.970;1.524;2023-01-24T01:31:36;14.77;;;9.80;;
53389;SDS011;39288;42.970;1.524;2023-01-24T01:32:37;14.60;;;9.65;;
53389;SDS011;39288;42.970;1.524;2023-01-24T01:33:37;14.43;;;8.77;;
53389;SDS011;39288;42.970;1.524;2023-01-24T01:34:38;14.37;;;9.63;;
53389;SDS011;39288;42.970;1.524;2023-01-24T01:35:38;13.37;;;8.87;;
53389;SDS011;39288;42.970;1.524;2023-01-24T01:36:39;15.00;;;8.87;;
53389;SDS011;39288;42.970;1.524;2023-01-24T01:37:39;13.60;;;9.07;;
53389;SDS011;39288;42.970;1.524;2023-01-24T01:38:40;14.97;;;9.47;;
53389;SDS011;39288;42.970;1.524;2023-01-24T01:39:40;15.23;;;9.47;;
53389;SDS011;39288;42.970;1.524;2023-01-24T01:40:41;13.87;;;9.57;;
53389;SDS011;39288;42.970;1.524;2023-01-24T01:41:42;13.73;;;9.57;;
53389;SDS011;39288;42.970;1.524;2023-01-24T01:42:52;15.07;;;9.30;;
53389;SDS011;39288;42.970;1.524;2023-01-24T01:43:54;15.20;;;9.48;;
53389;SDS011;39288;42.970;1.524;2023-01-24T01:45:47;12.32;;;8.57;;
53389;SDS011;39288;42.970;1.524;2023-01-24T01:46:49;12.98;;;8.85;;
53389;SDS011;39288;42.970;1.524;2023-01-24T01:47:50;14.60;;;8.55;;
53389;SDS011;39288;42.970;1.524;2023-01-24T01:48:52;9.50;;;7.27;;
53389;SDS011;39288;42.970;1.524;2023-01-24T01:52:16;11.52;;;7.75;;
53389;SDS011;39288;42.970;1.524;2023-01-24T01:53:16;11.37;;;7.53;;
53389;SDS011;39288;42.970;1.524;2023-01-24T01:54:18;12.90;;;8.50;;
53389;SDS011;39288;42.970;1.524;2023-01-24T01:55:21;12.52;;;8.23;;
53389;SDS011;39288;42.970;1.524;2023-01-24T01:56:27;8.98;;;6.78;;
53389;SDS011;39288;42.970;1.524;2023-01-24T01:57:29;9.73;;;6.90;;
53389;SDS011;39288;42.970;1.524;2023-01-24T01:58:31;11.15;;;7.15;;
53389;SDS011;39288;42.970;1.524;2023-01-24T02:00:38;11.32;;;7.35;;
53389;SDS011;39288;42.970;1.524;2023-01-24T02:01:38;11.03;;;7.63;;
53389;SDS011;39288;42.970;1.524;2023-01-24T02:02:42;12.50;;;7.00;;
53389;SDS011;39288;42.970;1.524;2023-01-24T02:03:47;14.50;;;7.30;;
53389;SDS011;39288;42.970;1.524;2023-01-24T02:04:54;9.75;;;6.30;;
53389;SDS011;39288;42.970;1.524;2023-01-24T02:06:00;11.20;;;6.00;;
53389;SDS011;39288;42.970;1.524;2023-01-24T02:07:05;12.33;;;6.83;;
53389;SDS011;39288;42.970;1.524;2023-01-24T02:08:08;9.60;;;5.93;;
53389;SDS011;39288;42.970;1.524;2023-01-24T02:09:11;9.38;;;6.45;;
53389;SDS011;39288;42.970;1.524;2023-01-24T02:10:15;10.18;;;7.13;;
53389;SDS011;39288;42.970;1.524;2023-01-24T02:11:21;11.15;;;6.50;;
53389;SDS011;39288;42.970;1.524;2023-01-24T02:12:43;9.93;;;6.68;;
53389;SDS011;39288;42.970;1.524;2023-01-24T02:13:46;12.75;;;7.55;;
53389;SDS011;39288;42.970;1.524;2023-01-24T02:14:48;10.80;;;6.93;;
53389;SDS011;39288;42.970;1.524;2023-01-24T02:16:10;9.23;;;6.30;;
53389;SDS011;39288;42.970;1.524;2023-01-24T02:17:11;10.63;;;6.75;;
53389;SDS011;39288;42.970;1.524;2023-01-24T02:18:12;8.20;;;5.70;;
53389;SDS011;39288;42.970;1.524;2023-01-24T02:19:23;10.97;;;6.70;;
53389;SDS011;39288;42.970;1.524;2023-01-24T02:20:47;9.57;;;6.72;;
53389;SDS011;39288;42.970;1.524;2023-01-24T02:21:49;9.87;;;5.73;;
53389;SDS011;39288;42.970;1.524;2023-01-24T02:24:16;12.35;;;6.43;;
53389;SDS011;39288;42.970;1.524;2023-01-24T02:26:40;8.52;;;5.68;;
53389;SDS011;39288;42.970;1.524;2023-01-24T02:27:40;8.37;;;5.30;;
53389;SDS011;39288;42.970;1.524;2023-01-24T02:28:50;10.53;;;6.50;;
53389;SDS011;39288;42.970;1.524;2023-01-24T02:29:55;7.60;;;5.70;;
53389;SDS011;39288;42.970;1.524;2023-01-24T02:30:57;9.98;;;6.22;;
53389;SDS011;39288;42.970;1.524;2023-01-24T02:31:58;8.50;;;5.82;;
53389;SDS011;39288;42.970;1.524;2023-01-24T02:33:08;9.63;;;6.18;;
53389;SDS011;39288;42.970;1.524;2023-01-24T02:34:12;9.20;;;6.32;;
53389;SDS011;39288;42.970;1.524;2023-01-24T02:35:26;9.97;;;6.40;;
53389;SDS011;39288;42.970;1.524;2023-01-24T02:36:30;7.32;;;5.05;;
53389;SDS011;39288;42.970;1.524;2023-01-24T02:37:34;8.77;;;5.38;;
53389;SDS011;39288;42.970;1.524;2023-01-24T02:38:35;8.25;;;5.38;;
53389;SDS011;39288;42.970;1.524;2023-01-24T02:40:59;8.05;;;5.15;;
53389;SDS011;39288;42.970;1.524;2023-01-24T02:42:07;8.27;;;5.50;;
53389;SDS011;39288;42.970;1.524;2023-01-24T02:43:14;7.25;;;5.20;;
53389;SDS011;39288;42.970;1.524;2023-01-24T02:45:25;8.40;;;4.95;;
53389;SDS011;39288;42.970;1.524;2023-01-24T02:46:30;6.35;;;4.70;;
53389;SDS011;39288;42.970;1.524;2023-01-24T02:47:32;8.10;;;5.10;;
53389;SDS011;39288;42.970;1.524;2023-01-24T02:48:35;7.85;;;5.18;;
53389;SDS011;39288;42.970;1.524;2023-01-24T02:49:36;8.13;;;5.53;;
53389;SDS011;39288;42.970;1.524;2023-01-24T02:50:37;7.93;;;5.03;;
53389;SDS011;39288;42.970;1.524;2023-01-24T02:51:56;12.20;;;7.88;;
53389;SDS011;39288;42.970;1.524;2023-01-24T02:53:15;26.23;;;17.02;;
53389;SDS011;39288;42.970;1.524;2023-01-24T02:54:30;15.73;;;9.82;;
53389;SDS011;39288;42.970;1.524;2023-01-24T02:55:32;7.87;;;5.60;;
53389;SDS011;39288;42.970;1.524;2023-01-24T02:56:54;6.55;;;4.70;;
53389;SDS011;39288;42.970;1.524;2023-01-24T02:58:13;6.95;;;4.60;;
53389;SDS011;39288;42.970;1.524;2023-01-24T02:59:13;6.50;;;4.67;;
53389;SDS011;39288;42.970;1.524;2023-01-24T03:00:14;6.80;;;4.53;;
53389;SDS011;39288;42.970;1.524;2023-01-24T03:01:15;7.33;;;4.53;;
53389;SDS011;39288;42.970;1.524;2023-01-24T03:02:16;6.03;;;4.30;;
53389;SDS011;39288;42.970;1.524;2023-01-24T03:03:16;6.73;;;4.80;;
53389;SDS011;39288;42.970;1.524;2023-01-24T03:04:17;10.53;;;5.43;;
53389;SDS011;39288;42.970;1.524;2023-01-24T03:05:17;6.50;;;4.17;;
53389;SDS011;39288;42.970;1.524;2023-01-24T03:06:18;6.23;;;4.00;;
53389;SDS011;39288;42.970;1.524;2023-01-24T03:07:19;8.03;;;4.80;;
53389;SDS011;39288;42.970;1.524;2023-01-24T03:08:19;6.53;;;4.83;;
53389;SDS011;39288;42.970;1.524;2023-01-24T03:09:19;6.80;;;4.57;;
53389;SDS011;39288;42.970;1.524;2023-01-24T03:10:33;5.95;;;4.20;;
53389;SDS011;39288;42.970;1.524;2023-01-24T03:11:34;8.57;;;4.80;;
53389;SDS011;39288;42.970;1.524;2023-01-24T03:12:35;5.47;;;3.97;;
53389;SDS011;39288;42.970;1.524;2023-01-24T03:13:54;10.68;;;4.60;;
53389;SDS011;39288;42.970;1.524;2023-01-24T03:15:13;7.15;;;4.45;;
53389;SDS011;39288;42.970;1.524;2023-01-24T03:16:32;6.82;;;4.60;;
53389;SDS011;39288;42.970;1.524;2023-01-24T03:17:51;7.20;;;4.70;;
53389;SDS011;39288;42.970;1.524;2023-01-24T03:19:10;6.82;;;4.65;;
53389;SDS011;39288;42.970;1.524;2023-01-24T03:20:29;9.38;;;5.15;;
53389;SDS011;39288;42.970;1.524;2023-01-24T03:21:48;7.40;;;4.93;;
53389;SDS011;39288;42.970;1.524;2023-01-24T03:23:07;6.57;;;4.15;;
53389;SDS011;39288;42.970;1.524;2023-01-24T03:24:26;7.57;;;4.10;;
53389;SDS011;39288;42.970;1.524;2023-01-24T03:25:44;5.53;;;4.22;;
53389;SDS011;39288;42.970;1.524;2023-01-24T03:27:03;7.55;;;4.53;;
53389;SDS011;39288;42.970;1.524;2023-01-24T03:28:22;6.10;;;3.70;;
53389;SDS011;39288;42.970;1.524;2023-01-24T03:29:41;7.47;;;4.50;;
53389;SDS011;39288;42.970;1.524;2023-01-24T03:31:00;6.13;;;4.25;;
53389;SDS011;39288;42.970;1.524;2023-01-24T03:32:19;7.13;;;4.63;;
53389;SDS011;39288;42.970;1.524;2023-01-24T03:33:37;6.38;;;3.85;;
53389;SDS011;39288;42.970;1.524;2023-01-24T03:34:56;6.18;;;4.13;;
53389;SDS011;39288;42.970;1.524;2023-01-24T03:35:57;7.57;;;4.77;;
53389;SDS011;39288;42.970;1.524;2023-01-24T03:37:01;6.63;;;4.55;;
53389;SDS011;39288;42.970;1.524;2023-01-24T03:38:02;6.10;;;4.07;;
53389;SDS011;39288;42.970;1.524;2023-01-24T03:39:21;7.40;;;4.30;;
53389;SDS011;39288;42.970;1.524;2023-01-24T03:40:40;5.35;;;3.42;;
53389;SDS011;39288;42.970;1.524;2023-01-24T03:41:40;5.73;;;4.30;;
53389;SDS011;39288;42.970;1.524;2023-01-24T03:42:41;6.37;;;4.70;;
53389;SDS011;39288;42.970;1.524;2023-01-24T03:43:50;6.45;;;4.28;;
53389;SDS011;39288;42.970;1.524;2023-01-24T03:44:51;7.40;;;4.77;;
53389;SDS011;39288;42.970;1.524;2023-01-24T03:45:51;6.63;;;4.40;;
53389;SDS011;39288;42.970;1.524;2023-01-24T03:46:52;7.07;;;4.28;;
53389;SDS011;39288;42.970;1.524;2023-01-24T03:47:54;6.60;;;4.37;;
53389;SDS011;39288;42.970;1.524;2023-01-24T03:48:56;5.57;;;3.95;;
53389;SDS011;39288;42.970;1.524;2023-01-24T03:49:57;7.70;;;4.97;;
53389;SDS011;39288;42.970;1.524;2023-01-24T03:51:16;6.82;;;4.43;;
53389;SDS011;39288;42.970;1.524;2023-01-24T03:52:35;7.65;;;4.50;;
53389;SDS011;39288;42.970;1.524;2023-01-24T03:53:35;6.77;;;4.53;;
53389;SDS011;39288;42.970;1.524;2023-01-24T03:54:36;7.50;;;5.23;;
53389;SDS011;39288;42.970;1.524;2023-01-24T03:55:36;7.20;;;4.63;;
53389;SDS011;39288;42.970;1.524;2023-01-24T03:56:37;7.90;;;5.07;;
53389;SDS011;39288;42.970;1.524;2023-01-24T03:57:37;8.93;;;5.50;;
53389;SDS011;39288;42.970;1.524;2023-01-24T03:58:38;9.40;;;6.33;;
53389;SDS011;39288;42.970;1.524;2023-01-24T03:59:41;10.50;;;6.53;;
53389;SDS011;39288;42.970;1.524;2023-01-24T04:00:42;11.77;;;8.03;;
53389;SDS011;39288;42.970;1.524;2023-01-24T04:01:42;11.13;;;7.67;;
53389;SDS011;39288;42.970;1.524;2023-01-24T04:02:42;13.33;;;8.53;;
53389;SDS011;39288;42.970;1.524;2023-01-24T04:03:43;11.70;;;7.63;;
53389;SDS011;39288;42.970;1.524;2023-01-24T04:04:43;12.30;;;7.83;;
53389;SDS011;39288;42.970;1.524;2023-01-24T04:06:02;11.75;;;8.30;;
53389;SDS011;39288;42.970;1.524;2023-01-24T04:07:03;12.10;;;8.13;;
53389;SDS011;39288;42.970;1.524;2023-01-24T04:08:04;11.50;;;7.93;;
53389;SDS011;39288;42.970;1.524;2023-01-24T04:09:04;10.77;;;7.67;;
53389;SDS011;39288;42.970;1.524;2023-01-24T04:10:05;12.93;;;8.80;;
53389;SDS011;39288;42.970;1.524;2023-01-24T04:11:06;14.20;;;9.13;;
53389;SDS011;39288;42.970;1.524;2023-01-24T04:12:06;13.67;;;8.77;;
53389;SDS011;39288;42.970;1.524;2023-01-24T04:13:07;12.73;;;8.80;;
53389;SDS011;39288;42.970;1.524;2023-01-24T04:14:09;13.85;;;8.95;;
53389;SDS011;39288;42.970;1.524;2023-01-24T04:15:13;13.10;;;8.23;;
53389;SDS011;39288;42.970;1.524;2023-01-24T04:16:24;18.08;;;9.95;;
53389;SDS011;39288;42.970;1.524;2023-01-24T04:17:24;13.93;;;8.97;;
53389;SDS011;39288;42.970;1.524;2023-01-24T04:18:25;13.53;;;8.50;;
53389;SDS011;39288;42.970;1.524;2023-01-24T04:19:25;14.37;;;9.47;;
53389;SDS011;39288;42.970;1.524;2023-01-24T04:20:26;11.10;;;8.03;;
53389;SDS011;39288;42.970;1.524;2023-01-24T04:21:28;13.02;;;8.57;;
53389;SDS011;39288;42.970;1.524;2023-01-24T04:22:29;11.03;;;7.60;;
53389;SDS011;39288;42.970;1.524;2023-01-24T04:23:30;12.67;;;8.20;;
53389;SDS011;39288;42.970;1.524;2023-01-24T04:24:30;14.38;;;8.80;;
53389;SDS011;39288;42.970;1.524;2023-01-24T04:25:31;11.40;;;8.13;;
53389;SDS011;39288;42.970;1.524;2023-01-24T04:26:31;12.60;;;8.30;;
53389;SDS011;39288;42.970;1.524;2023-01-24T04:27:32;12.63;;;8.40;;
53389;SDS011;39288;42.970;1.524;2023-01-24T04:28:32;11.87;;;8.60;;
53389;SDS011;39288;42.970;1.524;2023-01-24T04:29:33;11.90;;;7.53;;
53389;SDS011;39288;42.970;1.524;2023-01-24T04:30:33;12.57;;;8.77;;
53389;SDS011;39288;42.970;1.524;2023-01-24T04:31:34;13.60;;;8.47;;
53389;SDS011;39288;42.970;1.524;2023-01-24T04:32:34;11.87;;;7.93;;
53389;SDS011;39288;42.970;1.524;2023-01-24T04:33:35;12.63;;;8.10;;
53389;SDS011;39288;42.970;1.524;2023-01-24T04:34:36;11.87;;;8.37;;
53389;SDS011;39288;42.970;1.524;2023-01-24T04:35:36;12.87;;;8.30;;
53389;SDS011;39288;42.970;1.524;2023-01-24T04:36:36;13.07;;;8.50;;
53389;SDS011;39288;42.970;1.524;2023-01-24T04:37:37;12.77;;;8.13;;
53389;SDS011;39288;42.970;1.524;2023-01-24T04:38:37;11.43;;;7.87;;
53389;SDS011;39288;42.970;1.524;2023-01-24T04:39:38;12.20;;;8.07;;
53389;SDS011;39288;42.970;1.524;2023-01-24T04:40:38;10.87;;;7.07;;
53389;SDS011;39288;42.970;1.524;2023-01-24T04:41:40;11.70;;;7.43;;
53389;SDS011;39288;42.970;1.524;2023-01-24T04:42:41;14.20;;;9.13;;
53389;SDS011;39288;42.970;1.524;2023-01-24T04:43:41;10.47;;;7.63;;
53389;SDS011;39288;42.970;1.524;2023-01-24T04:44:42;12.33;;;7.90;;
53389;SDS011;39288;42.970;1.524;2023-01-24T04:45:42;13.13;;;8.77;;
53389;SDS011;39288;42.970;1.524;2023-01-24T04:46:43;12.77;;;8.73;;
53389;SDS011;39288;42.970;1.524;2023-01-24T04:47:43;11.50;;;8.20;;
53389;SDS011;39288;42.970;1.524;2023-01-24T04:48:44;12.50;;;8.57;;
53389;SDS011;39288;42.970;1.524;2023-01-24T04:49:44;12.37;;;8.43;;
53389;SDS011;39288;42.970;1.524;2023-01-24T04:50:44;11.80;;;7.50;;
53389;SDS011;39288;42.970;1.524;2023-01-24T04:51:49;12.73;;;8.33;;
53389;SDS011;39288;42.970;1.524;2023-01-24T04:52:49;12.25;;;7.88;;
53389;SDS011;39288;42.970;1.524;2023-01-24T04:53:50;11.27;;;7.77;;
53389;SDS011;39288;42.970;1.524;2023-01-24T04:54:50;12.67;;;8.03;;
53389;SDS011;39288;42.970;1.524;2023-01-24T04:55:51;12.63;;;8.10;;
53389;SDS011;39288;42.970;1.524;2023-01-24T04:56:52;12.40;;;8.47;;
53389;SDS011;39288;42.970;1.524;2023-01-24T04:57:52;14.83;;;9.10;;
53389;SDS011;39288;42.970;1.524;2023-01-24T04:58:53;12.47;;;8.80;;
53389;SDS011;39288;42.970;1.524;2023-01-24T04:59:53;13.37;;;8.87;;
53389;SDS011;39288;42.970;1.524;2023-01-24T05:00:53;13.90;;;8.43;;
53389;SDS011;39288;42.970;1.524;2023-01-24T05:01:54;12.03;;;7.83;;
53389;SDS011;39288;42.970;1.524;2023-01-24T05:02:54;12.47;;;8.63;;
53389;SDS011;39288;42.970;1.524;2023-01-24T05:03:55;13.63;;;8.87;;
53389;SDS011;39288;42.970;1.524;2023-01-24T05:04:58;11.60;;;8.07;;
53389;SDS011;39288;42.970;1.524;2023-01-24T05:05:59;12.50;;;8.53;;
53389;SDS011;39288;42.970;1.524;2023-01-24T05:06:59;15.40;;;8.40;;
53389;SDS011;39288;42.970;1.524;2023-01-24T05:08:00;12.80;;;8.33;;
53389;SDS011;39288;42.970;1.524;2023-01-24T05:09:00;14.13;;;8.93;;
53389;SDS011;39288;42.970;1.524;2023-01-24T05:10:01;12.23;;;8.43;;
53389;SDS011;39288;42.970;1.524;2023-01-24T05:11:01;12.57;;;8.50;;
53389;SDS011;39288;42.970;1.524;2023-01-24T05:12:02;22.23;;;14.65;;
53389;SDS011;39288;42.970;1.524;2023-01-24T05:13:03;18.83;;;13.33;;
53389;SDS011;39288;42.970;1.524;2023-01-24T05:14:03;15.43;;;9.13;;
53389;SDS011;39288;42.970;1.524;2023-01-24T05:15:04;16.17;;;10.33;;
53389;SDS011;39288;42.970;1.524;2023-01-24T05:16:05;14.15;;;9.23;;
53389;SDS011;39288;42.970;1.524;2023-01-24T05:17:06;14.40;;;9.73;;
53389;SDS011;39288;42.970;1.524;2023-01-24T05:18:06;14.63;;;9.20;;
53389;SDS011;39288;42.970;1.524;2023-01-24T05:19:07;15.77;;;9.67;;
53389;SDS011;39288;42.970;1.524;2023-01-24T05:20:07;17.90;;;9.50;;
53389;SDS011;39288;42.970;1.524;2023-01-24T05:21:10;12.40;;;9.27;;
53389;SDS011;39288;42.970;1.524;2023-01-24T05:22:12;11.77;;;8.35;;
53389;SDS011;39288;42.970;1.524;2023-01-24T05:23:13;12.67;;;9.50;;
53389;SDS011;39288;42.970;1.524;2023-01-24T05:24:13;14.17;;;9.20;;
53389;SDS011;39288;42.970;1.524;2023-01-24T05:25:14;13.63;;;9.50;;
53389;SDS011;39288;42.970;1.524;2023-01-24T05:26:15;12.55;;;9.23;;
53389;SDS011;39288;42.970;1.524;2023-01-24T05:27:16;14.97;;;9.47;;
53389;SDS011;39288;42.970;1.524;2023-01-24T05:28:19;13.60;;;9.73;;
53389;SDS011;39288;42.970;1.524;2023-01-24T05:29:19;16.43;;;10.10;;
53389;SDS011;39288;42.970;1.524;2023-01-24T05:30:20;14.83;;;9.43;;
53389;SDS011;39288;42.970;1.524;2023-01-24T05:31:20;15.43;;;9.63;;
53389;SDS011;39288;42.970;1.524;2023-01-24T05:32:21;14.80;;;9.40;;
53389;SDS011;39288;42.970;1.524;2023-01-24T05:33:21;12.40;;;9.10;;
53389;SDS011;39288;42.970;1.524;2023-01-24T05:34:22;13.77;;;9.60;;
53389;SDS011;39288;42.970;1.524;2023-01-24T05:35:22;15.77;;;9.77;;
53389;SDS011;39288;42.970;1.524;2023-01-24T05:36:24;20.58;;;9.75;;
53389;SDS011;39288;42.970;1.524;2023-01-24T05:37:25;13.40;;;9.02;;
53389;SDS011;39288;42.970;1.524;2023-01-24T05:38:25;15.57;;;9.90;;
53389;SDS011;39288;42.970;1.524;2023-01-24T05:39:26;13.07;;;9.00;;
53389;SDS011;39288;42.970;1.524;2023-01-24T05:40:26;15.53;;;10.30;;
53389;SDS011;39288;42.970;1.524;2023-01-24T05:41:27;15.03;;;9.53;;
53389;SDS011;39288;42.970;1.524;2023-01-24T05:42:27;16.87;;;10.13;;
53389;SDS011;39288;42.970;1.524;2023-01-24T05:43:28;13.17;;;8.87;;
53389;SDS011;39288;42.970;1.524;2023-01-24T05:44:29;14.50;;;10.00;;
53389;SDS011;39288;42.970;1.524;2023-01-24T05:45:29;13.70;;;9.53;;
53389;SDS011;39288;42.970;1.524;2023-01-24T05:46:30;13.97;;;10.00;;
53389;SDS011;39288;42.970;1.524;2023-01-24T05:47:30;14.33;;;9.37;;
53389;SDS011;39288;42.970;1.524;2023-01-24T05:48:30;16.90;;;10.67;;
53389;SDS011;39288;42.970;1.524;2023-01-24T05:49:31;14.43;;;10.17;;
53389;SDS011;39288;42.970;1.524;2023-01-24T05:50:32;14.23;;;9.63;;
53389;SDS011;39288;42.970;1.524;2023-01-24T05:51:32;13.60;;;9.37;;
53389;SDS011;39288;42.970;1.524;2023-01-24T05:52:32;14.67;;;9.33;;
53389;SDS011;39288;42.970;1.524;2023-01-24T05:53:34;16.70;;;9.80;;
53389;SDS011;39288;42.970;1.524;2023-01-24T05:54:39;14.43;;;9.55;;
53389;SDS011;39288;42.970;1.524;2023-01-24T05:55:39;13.65;;;8.82;;
53389;SDS011;39288;42.970;1.524;2023-01-24T05:56:39;15.70;;;10.27;;
53389;SDS011;39288;42.970;1.524;2023-01-24T05:57:40;16.77;;;9.87;;
53389;SDS011;39288;42.970;1.524;2023-01-24T05:58:41;13.40;;;9.17;;
53389;SDS011;39288;42.970;1.524;2023-01-24T05:59:42;11.73;;;8.65;;
53389;SDS011;39288;42.970;1.524;2023-01-24T06:00:43;14.40;;;9.63;;
53389;SDS011;39288;42.970;1.524;2023-01-24T06:01:43;11.93;;;9.03;;
53389;SDS011;39288;42.970;1.524;2023-01-24T06:02:44;13.13;;;8.80;;
53389;SDS011;39288;42.970;1.524;2023-01-24T06:03:45;16.00;;;9.93;;
53389;SDS011;39288;42.970;1.524;2023-01-24T06:04:50;15.35;;;10.27;;
53389;SDS011;39288;42.970;1.524;2023-01-24T06:05:53;15.40;;;9.87;;
53389;SDS011;39288;42.970;1.524;2023-01-24T06:06:54;14.98;;;9.95;;
53389;SDS011;39288;42.970;1.524;2023-01-24T06:07:54;12.23;;;8.90;;
53389;SDS011;39288;42.970;1.524;2023-01-24T06:08:54;15.53;;;11.03;;
53389;SDS011;39288;42.970;1.524;2023-01-24T06:09:55;15.07;;;9.90;;
53389;SDS011;39288;42.970;1.524;2023-01-24T06:11:00;15.83;;;10.20;;
53389;SDS011;39288;42.970;1.524;2023-01-24T06:12:02;14.25;;;9.38;;
53389;SDS011;39288;42.970;1.524;2023-01-24T06:13:03;15.23;;;9.80;;
53389;SDS011;39288;42.970;1.524;2023-01-24T06:14:03;15.13;;;9.83;;
53389;SDS011;39288;42.970;1.524;2023-01-24T06:15:04;15.57;;;10.53;;
53389;SDS011;39288;42.970;1.524;2023-01-24T06:16:06;13.40;;;9.53;;
53389;SDS011;39288;42.970;1.524;2023-01-24T06:17:09;17.13;;;11.15;;
53389;SDS011;39288;42.970;1.524;2023-01-24T06:18:11;17.03;;;10.67;;
53389;SDS011;39288;42.970;1.524;2023-01-24T06:19:14;14.82;;;9.23;;
53389;SDS011;39288;42.970;1.524;2023-01-24T06:20:15;14.55;;;9.05;;
53389;SDS011;39288;42.970;1.524;2023-01-24T06:21:18;13.17;;;9.03;;
53389;SDS011;39288;42.970;1.524;2023-01-24T06:22:28;14.27;;;9.32;;
53389;SDS011;39288;42.970;1.524;2023-01-24T06:23:35;15.82;;;9.77;;